Time;durP1;ratioP1;P1;durP2;ratioP2;P2;SDS_P1;SDS_P2;PMS_P1;PMS_P2;Temp;Humidity;BMP_temperature;BMP_pressure;BME280_temperature;BME280_humidity;BME280_pressure;Samples;Min_cycle;Max_cycle;Signal;HPM_P1;HPM_P2
2022/05/18 00:01:07;;;;;;;0.50;0.50;;;;;;;6.18;88.88;98401.31;4995909;28;20057;-81
2022/05/18 00:03:38;;;;;;;0.60;0.60;;;;;;;6.08;88.63;98376.97;5013475;28;20054;-82
2022/05/18 00:06:06;;;;;;;0.50;0.50;;;;;;;6.07;88.67;98386.84;5013139;28;20061;-82
2022/05/18 00:08:36;;;;;;;0.60;0.60;;;;;;;6.06;89.05;98405.84;5013084;28;20038;-80
2022/05/18 00:11:11;;;;;;;0.50;0.50;;;;;;;5.92;89.19;98389.09;5013418;28;20046;-82
2022/05/18 00:13:43;;;;;;;0.50;0.50;;;;;;;5.98;89.13;98412.34;5011363;28;20042;-82
2022/05/18 00:16:11;;;;;;;0.60;0.60;;;;;;;5.97;89.02;98407.19;5010319;28;20050;-82
2022/05/18 00:18:38;;;;;;;0.60;0.60;;;;;;;5.86;89.11;98411.47;5011766;28;20042;-81
2022/05/18 00:21:06;;;;;;;0.52;0.52;;;;;;;5.94;88.90;98416.50;5011554;28;20152;-81
2022/05/18 00:23:34;;;;;;;0.60;0.60;;;;;;;5.83;88.85;98409.25;5012784;28;20049;-83
2022/05/18 00:26:02;;;;;;;0.50;0.50;;;;;;;5.76;89.28;98406.66;5011305;28;20061;-82
2022/05/18 00:28:30;;;;;;;0.60;0.60;;;;;;;5.73;89.07;98411.66;5012892;28;20080;-82
2022/05/18 00:30:59;;;;;;;0.50;0.50;;;;;;;5.78;89.12;98425.19;4994775;28;20054;-81
2022/05/18 00:33:28;;;;;;;0.60;0.60;;;;;;;5.64;89.12;98411.94;4991273;28;20149;-81
2022/05/18 00:35:57;;;;;;;0.60;0.60;;;;;;;5.67;89.62;98426.75;5012859;28;20505;-81
2022/05/18 00:38:27;;;;;;;0.50;0.50;;;;;;;5.60;89.58;98424.16;5011969;28;20456;-82
2022/05/18 00:40:55;;;;;;;0.50;0.50;;;;;;;5.63;89.84;98431.75;5012121;28;20513;-82
2022/05/18 00:43:28;;;;;;;0.50;0.50;;;;;;;5.70;89.23;98434.34;5011112;28;20304;-81
2022/05/18 00:45:57;;;;;;;0.60;0.60;;;;;;;5.68;89.45;98430.25;5012843;28;20501;-81
2022/05/18 00:48:24;;;;;;;0.50;0.50;;;;;;;5.54;89.26;98414.34;5012760;28;20088;-81
2022/05/18 00:50:54;;;;;;;0.60;0.60;;;;;;;5.46;89.49;98422.69;4993982;28;20073;-81
2022/05/18 00:53:41;;;;;;;0.60;0.60;;;;;;;5.48;89.81;98428.66;5007300;28;20102;-81
2022/05/18 00:56:12;;;;;;;0.60;0.60;;;;;;;5.58;89.45;98431.59;5007125;28;20061;-81
2022/05/18 00:58:45;;;;;;;0.50;0.50;;;;;;;5.47;89.26;98424.34;4999968;28;20058;-81
2022/05/18 01:01:12;;;;;;;0.50;0.50;;;;;;;5.52;89.31;98437.03;5010582;28;20053;-81
2022/05/18 01:03:48;;;;;;;0.50;0.50;;;;;;;5.47;89.47;98444.91;5011258;28;20096;-82
2022/05/18 01:06:40;;;;;;;0.50;0.50;;;;;;;5.51;89.30;98444.25;5009135;28;20050;-82
2022/05/18 01:09:21;;;;;;;0.57;0.57;;;;;;;5.51;88.95;98438.09;5012484;28;20501;-81
2022/05/18 01:11:49;;;;;;;0.50;0.50;;;;;;;5.43;88.23;98436.53;5007789;28;20053;-82
2022/05/18 01:14:33;;;;;;;0.60;0.60;;;;;;;5.55;88.13;98437.41;4992759;28;20444;-82
2022/05/18 01:17:00;;;;;;;0.60;0.60;;;;;;;5.55;87.49;98448.13;4992835;28;20054;-82
2022/05/18 01:19:58;;;;;;;0.50;0.50;;;;;;;5.54;87.63;98451.00;4988184;28;20053;-81
2022/05/18 01:22:41;;;;;;;0.60;0.60;;;;;;;5.56;87.32;98460.47;4932019;29;20439;-81
2022/05/18 01:25:31;;;;;;;0.60;0.60;;;;;;;5.55;87.04;98464.19;4930420;29;20111;-81
2022/05/18 01:28:00;;;;;;;0.60;0.60;;;;;;;5.45;87.05;98469.25;4928633;29;20059;-81
2022/05/18 01:30:29;;;;;;;0.52;0.52;;;;;;;5.35;87.31;98460.94;4928706;29;20052;-81
2022/05/18 01:32:58;;;;;;;0.60;0.60;;;;;;;5.36;87.17;98467.91;4928000;29;20052;-82
2022/05/18 01:35:28;;;;;;;0.57;0.57;;;;;;;5.44;86.79;98480.97;4928533;29;20055;-81
2022/05/18 01:37:57;;;;;;;0.52;0.52;;;;;;;5.38;86.98;98481.88;4928407;29;20079;-81
2022/05/18 01:40:37;;;;;;;0.50;0.50;;;;;;;5.36;87.04;98481.28;4928965;29;20529;-82
2022/05/18 01:43:22;;;;;;;0.60;0.60;;;;;;;5.32;87.20;98477.44;4928540;29;20043;-81
2022/05/18 01:45:52;;;;;;;0.60;0.60;;;;;;;5.24;86.83;98475.03;4928812;29;20103;-81
2022/05/18 01:48:22;;;;;;;0.60;0.60;;;;;;;5.35;86.22;98487.69;4928441;29;20106;-81
2022/05/18 01:50:50;;;;;;;0.60;0.60;;;;;;;5.35;86.51;98498.41;4928821;29;20075;-82
2022/05/18 01:53:18;;;;;;;0.50;0.50;;;;;;;5.41;85.95;98498.31;4913208;29;20599;-81
2022/05/18 01:55:45;;;;;;;0.60;0.60;;;;;;;5.45;85.62;98503.22;4930041;29;20487;-82
2022/05/18 01:58:13;;;;;;;0.70;0.70;;;;;;;5.48;84.72;98500.91;4944896;28;20418;-81
2022/05/18 02:00:44;;;;;;;0.60;0.60;;;;;;;5.50;84.61;98509.53;4991015;28;20084;-81
2022/05/18 02:03:12;;;;;;;0.55;0.55;;;;;;;5.52;84.68;98501.28;4988657;28;20050;-82
2022/05/18 02:05:40;;;;;;;0.60;0.60;;;;;;;5.64;83.97;98515.53;4990695;28;20460;-81
2022/05/18 02:08:08;;;;;;;0.60;0.60;;;;;;;5.73;83.51;98518.75;4992319;28;20042;-83
2022/05/18 02:10:41;;;;;;;0.60;0.60;;;;;;;5.82;83.02;98518.22;4990703;28;20046;-81
2022/05/18 02:13:08;;;;;;;0.60;0.60;;;;;;;5.77;82.88;98511.88;4991069;28;20081;-82
2022/05/18 02:15:35;;;;;;;0.50;0.50;;;;;;;5.83;82.94;98524.41;4991954;28;20548;-81
2022/05/18 02:18:03;;;;;;;0.50;0.50;;;;;;;5.88;82.69;98531.75;4991916;28;20050;-82
2022/05/18 02:20:30;;;;;;;0.60;0.60;;;;;;;5.88;82.77;98531.75;4991673;28;20047;-80
2022/05/18 02:22:58;;;;;;;0.60;0.60;;;;;;;5.82;82.63;98522.75;4988394;28;20432;-81
2022/05/18 02:25:26;;;;;;;0.60;0.60;;;;;;;5.96;82.25;98542.19;4989084;28;20436;-83
2022/05/18 02:27:54;;;;;;;0.60;0.60;;;;;;;6.02;82.34;98541.25;4991641;28;20520;-82
2022/05/18 02:30:22;;;;;;;0.50;0.50;;;;;;;6.14;81.43;98546.69;4991574;28;20078;-83
2022/05/18 02:32:49;;;;;;;0.60;0.60;;;;;;;6.16;80.87;98550.78;4989990;28;20050;-81
2022/05/18 02:35:17;;;;;;;0.60;0.60;;;;;;;6.33;80.03;98556.31;4990073;28;20536;-82
2022/05/18 02:37:44;;;;;;;0.57;0.57;;;;;;;6.40;80.00;98551.66;4991662;28;20041;-82
2022/05/18 02:40:12;;;;;;;0.60;0.60;;;;;;;6.40;79.97;98548.16;4973936;28;20073;-82
2022/05/18 02:42:39;;;;;;;0.60;0.60;;;;;;;6.49;79.65;98571.75;4990050;28;20563;-82
2022/05/18 02:45:08;;;;;;;0.60;0.60;;;;;;;6.54;79.22;98570.25;4990224;28;20054;-82
2022/05/18 02:47:35;;;;;;;0.60;0.60;;;;;;;6.53;78.53;98553.31;4988267;28;20038;-82
2022/05/18 02:50:03;;;;;;;0.60;0.60;;;;;;;6.70;77.93;98565.03;4971838;28;20113;-82
2022/05/18 02:52:31;;;;;;;0.60;0.60;;;;;;;6.93;76.87;98571.50;4987762;28;20121;-81
2022/05/18 02:57:46;;;;;;;0.70;0.70;;;;;;;7.15;75.60;98579.81;5000968;28;20061;-81
2022/05/18 03:00:14;;;;;;;0.60;0.60;;;;;;;7.13;75.41;98571.97;4989308;28;20054;-82
2022/05/18 03:02:41;;;;;;;0.60;0.60;;;;;;;7.25;75.54;98581.91;4990145;28;20070;-83
2022/05/18 03:05:11;;;;;;;0.55;0.55;;;;;;;7.32;75.48;98570.00;4996867;28;20050;-82
2022/05/18 03:07:38;;;;;;;0.60;0.60;;;;;;;7.44;74.91;98577.22;4998036;28;20077;-83
2022/05/18 03:10:06;;;;;;;0.60;0.60;;;;;;;7.38;74.63;98585.16;5006191;28;20050;-81
2022/05/18 03:12:33;;;;;;;0.50;0.50;;;;;;;7.36;74.40;98578.41;5007939;28;20505;-82
2022/05/18 03:15:00;;;;;;;0.50;0.50;;;;;;;7.41;74.73;98591.13;5009020;28;20049;-82
2022/05/18 03:17:28;;;;;;;0.60;0.60;;;;;;;7.31;75.40;98583.66;5010604;28;20446;-82
2022/05/18 03:19:56;;;;;;;0.57;0.57;;;;;;;7.35;75.79;98591.00;5010701;28;20417;-83
2022/05/18 03:25:08;;;;;;;0.57;0.57;;;;;;;7.29;75.33;98600.00;5012436;28;20060;-82
2022/05/18 03:27:41;;;;;;;0.50;0.50;;;;;;;7.36;75.32;98602.56;5011583;28;20038;-83
2022/05/18 03:30:10;;;;;;;0.60;0.60;;;;;;;7.40;75.35;98606.41;5012507;28;20047;-82
2022/05/18 03:32:39;;;;;;;0.57;0.57;;;;;;;7.42;74.81;98612.38;5016356;28;20565;-84
2022/05/18 03:35:08;;;;;;;0.60;0.60;;;;;;;7.49;74.88;98610.38;5012188;28;20060;-83
2022/05/18 03:37:35;;;;;;;0.60;0.60;;;;;;;7.54;74.56;98615.84;5025492;28;20049;-82
2022/05/18 03:40:03;;;;;;;0.60;0.60;;;;;;;7.60;74.76;98608.75;5010780;28;20389;-82
2022/05/18 03:42:30;;;;;;;0.60;0.60;;;;;;;7.72;74.52;98623.00;5010074;28;20046;-82
2022/05/18 03:44:58;;;;;;;0.60;0.60;;;;;;;7.75;73.79;98614.47;5010523;28;20428;-83
2022/05/18 03:47:25;;;;;;;0.60;0.60;;;;;;;7.71;72.56;98605.22;5008726;28;20046;-83
2022/05/18 03:49:52;;;;;;;0.60;0.60;;;;;;;7.71;72.00;98605.22;5008869;28;20053;-81
2022/05/18 03:52:19;;;;;;;0.60;0.60;;;;;;;7.72;70.26;98606.03;5010302;28;20046;-81
2022/05/18 03:54:49;;;;;;;0.60;0.60;;;;;;;7.91;70.79;98623.66;5010196;28;20865;-81
2022/05/18 03:57:16;;;;;;;0.60;0.60;;;;;;;7.99;70.39;98625.97;5012546;28;20141;-81
2022/05/18 03:59:43;;;;;;;0.50;0.50;;;;;;;8.06;70.33;98625.03;5013985;28;20077;-81
2022/05/18 04:02:10;;;;;;;0.50;0.50;;;;;;;8.14;69.94;98630.03;5013871;28;20516;-81
2022/05/18 04:04:38;;;;;;;0.60;0.60;;;;;;;8.17;69.88;98633.06;5012128;28;20053;-81
2022/05/18 04:07:05;;;;;;;0.60;0.60;;;;;;;8.17;69.29;98629.56;5013850;28;20058;-82
2022/05/18 04:09:37;;;;;;;0.60;0.60;;;;;;;8.28;69.17;98638.63;5013378;28;20046;-82
2022/05/18 04:12:05;;;;;;;0.60;0.60;;;;;;;8.18;67.92;98634.69;5011899;28;20148;-81
2022/05/18 04:14:33;;;;;;;0.60;0.60;;;;;;;8.24;68.49;98643.69;5013690;28;20129;-83
2022/05/18 04:17:00;;;;;;;0.60;0.60;;;;;;;8.28;67.61;98630.56;5012339;28;20050;-81
2022/05/18 04:19:27;;;;;;;0.60;0.60;;;;;;;8.32;67.28;98634.44;5011401;28;20054;-81
2022/05/18 04:21:54;;;;;;;0.60;0.60;;;;;;;8.43;66.97;98652.41;5009193;28;20052;-83
2022/05/18 04:24:22;;;;;;;0.60;0.60;;;;;;;8.54;67.84;98656.94;5013164;28;20069;-83
2022/05/18 04:26:49;;;;;;;0.60;0.60;;;;;;;8.72;67.88;98658.63;5011744;28;20060;-82
2022/05/18 04:29:16;;;;;;;0.60;0.60;;;;;;;8.82;66.70;98658.00;5013438;28;20050;-82
2022/05/18 04:31:43;;;;;;;0.60;0.60;;;;;;;8.89;65.58;98647.91;5011370;28;20037;-82
2022/05/18 04:34:11;;;;;;;0.60;0.60;;;;;;;8.88;65.51;98646.25;5017241;28;20053;-82
2022/05/18 04:36:38;;;;;;;0.50;0.50;;;;;;;8.93;65.71;98651.72;5032458;28;20119;-82
2022/05/18 04:39:05;;;;;;;0.52;0.52;;;;;;;8.93;64.80;98664.38;5031339;28;20041;-81
2022/05/18 04:41:32;;;;;;;0.50;0.50;;;;;;;8.85;65.13;98646.75;5025757;28;20049;-83
2022/05/18 04:43:59;;;;;;;0.50;0.50;;;;;;;9.16;65.17;98674.19;5015199;28;20050;-82
2022/05/18 04:46:27;;;;;;;0.60;0.60;;;;;;;9.15;64.85;98651.84;5007789;28;20092;-82
2022/05/18 04:48:54;;;;;;;0.50;0.50;;;;;;;9.31;63.81;98661.78;5015531;28;20046;-82
2022/05/18 04:51:21;;;;;;;0.60;0.60;;;;;;;9.38;63.59;98666.22;5032205;28;20049;-83
2022/05/18 04:53:48;;;;;;;0.50;0.50;;;;;;;9.32;63.10;98668.03;5023466;28;20072;-81
2022/05/18 04:56:15;;;;;;;0.50;0.50;;;;;;;9.35;63.18;98672.09;5029825;28;20416;-83
2022/05/18 04:58:42;;;;;;;0.50;0.50;;;;;;;9.38;62.76;98688.56;5030535;28;20061;-83
2022/05/18 05:01:10;;;;;;;0.60;0.60;;;;;;;9.38;62.12;98687.75;5012146;28;20112;-82
2022/05/18 05:03:37;;;;;;;0.60;0.60;;;;;;;9.42;61.44;98688.88;4996993;28;20049;-82
2022/05/18 05:06:05;;;;;;;0.60;0.60;;;;;;;9.39;61.44;98705.53;5021122;28;20050;-83
2022/05/18 05:08:34;;;;;;;0.55;0.55;;;;;;;9.42;61.25;98695.13;5009754;28;20050;-81
2022/05/18 05:11:02;;;;;;;0.60;0.60;;;;;;;9.43;61.72;98695.94;5011251;28;20083;-82
2022/05/18 05:13:29;;;;;;;0.50;0.50;;;;;;;9.38;61.28;98688.56;5012343;28;20472;-83
2022/05/18 05:16:07;;;;;;;0.60;0.60;;;;;;;9.52;60.88;98702.53;4661787;28;10000643;-82
2022/05/18 05:18:36;;;;;;;0.50;0.50;;;;;;;9.57;60.51;98697.25;5012893;28;20068;-84
2022/05/18 05:21:04;;;;;;;0.60;0.60;;;;;;;9.57;60.41;98702.63;5025991;28;20088;-82
2022/05/18 05:23:32;;;;;;;0.50;0.50;;;;;;;9.73;60.53;98706.38;5016901;28;20053;-81
2022/05/18 05:26:03;;;;;;;0.50;0.50;;;;;;;9.80;61.39;98701.63;5020929;28;21048;-81
2022/05/18 05:28:30;;;;;;;0.60;0.60;;;;;;;9.80;59.50;98693.56;5006652;28;20049;-83
2022/05/18 05:31:04;;;;;;;0.52;0.52;;;;;;;9.87;59.19;98704.94;5007121;28;20156;-82
2022/05/18 05:33:32;;;;;;;;;;;;;;;10.02;59.89;98717.03;5009254;28;20057;-82
2022/05/18 05:35:59;;;;;;;0.50;0.50;;;;;;;9.96;58.64;98708.06;5009892;28;19936;-82
2022/05/18 05:38:27;;;;;;;0.60;0.60;;;;;;;10.01;58.49;98701.94;5016539;28;20083;-83
2022/05/18 05:40:55;;;;;;;0.50;0.50;;;;;;;9.93;58.25;98695.09;5025751;28;20052;-84
2022/05/18 05:43:22;;;;;;;0.50;0.50;;;;;;;10.01;58.68;98708.13;5029908;28;20534;-82
2022/05/18 05:45:59;;;;;;;0.50;0.50;;;;;;;10.11;58.66;98707.47;5027846;28;20064;-82
2022/05/18 05:48:27;;;;;;;0.50;0.50;;;;;;;10.32;58.31;98719.38;5025362;28;20112;-83
2022/05/18 05:50:55;;;;;;;0.60;0.60;;;;;;;10.29;58.45;98719.88;5026349;28;20053;-80
2022/05/18 05:53:22;;;;;;;0.60;0.60;;;;;;;10.20;57.32;98687.91;5031401;28;20056;-81
2022/05/18 05:55:50;;;;;;;0.60;0.60;;;;;;;10.25;57.13;98700.63;5031018;28;20056;-81
2022/05/18 05:58:18;;;;;;;0.55;0.55;;;;;;;10.41;57.14;98712.47;5026448;28;20539;-81
2022/05/18 06:00:45;;;;;;;0.50;0.50;;;;;;;10.50;56.18;98718.25;5014053;28;20147;-80
2022/05/18 06:03:14;;;;;;;0.60;0.60;;;;;;;10.41;56.68;98701.69;5027899;28;20045;-84
2022/05/18 06:05:42;;;;;;;0.50;0.50;;;;;;;10.61;55.46;98720.81;5025792;28;20508;-83
2022/05/18 06:08:10;;;;;;;0.60;0.60;;;;;;;10.67;55.62;98708.22;5028126;28;20056;-82
2022/05/18 06:10:37;;;;;;;0.57;0.57;;;;;;;10.81;55.19;98706.75;5010099;28;20054;-84
2022/05/18 06:13:06;;;;;;;0.55;0.55;;;;;;;10.85;55.85;98710.56;5003207;28;20236;-81
2022/05/18 06:15:33;;;;;;;0.60;0.60;;;;;;;11.26;55.82;98723.66;5019457;28;20109;-83
2022/05/18 06:18:01;;;;;;;0.50;0.50;;;;;;;11.24;54.28;98710.44;5004126;28;20061;-84
2022/05/18 06:20:29;;;;;;;0.50;0.50;;;;;;;11.49;53.95;98728.75;4997625;28;20056;-83
2022/05/18 06:23:02;;;;;;;0.60;0.60;;;;;;;11.59;51.88;98710.97;5012662;28;20506;-84
2022/05/18 06:25:30;;;;;;;0.60;0.60;;;;;;;11.28;50.72;98705.31;5003626;28;20050;-85
2022/05/18 06:27:57;;;;;;;0.50;0.50;;;;;;;11.45;52.03;98729.53;5008376;28;20397;-84
2022/05/18 06:30:24;;;;;;;0.60;0.60;;;;;;;11.71;51.25;98736.75;5013510;28;20045;-81
2022/05/18 06:32:52;;;;;;;0.60;0.60;;;;;;;11.88;49.83;98730.44;5017764;28;20091;-82
2022/05/18 06:35:20;;;;;;;0.52;0.52;;;;;;;12.13;49.40;98711.69;5012127;28;20112;-81
2022/05/18 06:37:50;;;;;;;0.60;0.60;;;;;;;12.45;46.11;98735.09;5014424;28;20116;-82
2022/05/18 06:40:19;;;;;;;0.70;0.70;;;;;;;12.71;46.69;98722.50;5015679;28;20137;-83
2022/05/18 06:42:47;;;;;;;0.60;0.60;;;;;;;13.05;45.40;98721.25;5016142;28;20160;-86
2022/05/18 06:45:14;;;;;;;0.50;0.50;;;;;;;13.10;45.14;98740.22;5015565;28;20056;-84
2022/05/18 06:47:43;;;;;;;0.60;0.60;;;;;;;13.07;41.94;98727.22;4983590;28;20052;-81
2022/05/18 06:50:10;;;;;;;0.60;0.60;;;;;;;12.86;42.64;98729.03;5016334;28;20550;-84
2022/05/18 06:52:38;;;;;;;0.60;0.60;;;;;;;13.17;44.39;98735.38;5021217;28;20056;-86
2022/05/18 06:55:05;;;;;;;0.43;0.43;;;;;;;13.53;43.38;98724.59;5005736;28;20089;-83
2022/05/18 06:57:32;;;;;;;0.50;0.50;;;;;;;13.64;42.82;98750.63;5017136;28;20071;-84
2022/05/18 06:59:59;;;;;;;0.60;0.60;;;;;;;13.40;43.54;98737.59;5016252;28;20049;-82
2022/05/18 07:02:28;;;;;;;0.60;0.60;;;;;;;13.70;42.31;98737.88;5018221;28;20132;-83
2022/05/18 07:04:56;;;;;;;0.50;0.50;;;;;;;13.51;42.79;98726.75;5013914;28;20050;-84
2022/05/18 07:07:23;;;;;;;0.40;0.40;;;;;;;13.50;41.83;98746.84;5015811;28;20508;-80
2022/05/18 07:09:50;;;;;;;0.50;0.50;;;;;;;12.95;42.64;98733.69;5017277;28;20041;-83
2022/05/18 07:12:17;;;;;;;0.50;0.50;;;;;;;12.49;43.58;98741.63;5016165;28;20056;-82
2022/05/18 07:14:44;;;;;;;0.50;0.50;;;;;;;12.67;43.95;98766.63;5005874;28;20057;-81
2022/05/18 07:17:17;;;;;;;0.50;0.50;;;;;;;12.52;43.47;98768.16;5021809;28;20076;-82
2022/05/18 07:19:44;;;;;;;0.60;0.60;;;;;;;12.68;43.99;98744.66;5007779;28;20077;-83
2022/05/18 07:22:12;;;;;;;0.60;0.60;;;;;;;13.19;41.77;98760.28;5007255;28;20378;-82
2022/05/18 07:24:39;;;;;;;0.50;0.50;;;;;;;13.05;41.97;98751.03;5007296;28;20053;-82
2022/05/18 07:27:06;;;;;;;0.60;0.60;;;;;;;13.42;42.45;98759.84;5010424;28;20050;-84
2022/05/18 07:29:34;;;;;;;0.60;0.60;;;;;;;13.64;41.74;98750.63;5009719;28;20142;-82
2022/05/18 07:32:12;;;;;;;0.60;0.60;;;;;;;14.03;40.77;98752.78;5010219;28;20053;-81
2022/05/18 07:34:44;;;;;;;0.60;0.60;;;;;;;14.26;40.08;98735.91;5015643;28;20100;-83
2022/05/18 07:37:12;;;;;;;0.50;0.50;;;;;;;14.35;40.05;98748.91;5021893;28;20100;-84
2022/05/18 07:39:40;;;;;;;0.60;0.60;;;;;;;14.03;40.79;98731.91;5023953;28;20050;-80
2022/05/18 07:42:08;;;;;;;0.60;0.60;;;;;;;14.38;39.69;98764.66;5023058;28;20048;-82
2022/05/18 07:44:36;;;;;;;0.60;0.60;;;;;;;14.39;38.92;98758.16;5020448;28;20057;-83
2022/05/18 07:47:05;;;;;;;0.60;0.60;;;;;;;14.56;39.45;98755.13;5014227;28;20425;-85
2022/05/18 07:49:37;;;;;;;0.70;0.70;;;;;;;14.82;39.08;98755.88;5026343;28;20145;-82
2022/05/18 07:52:04;;;;;;;0.63;0.63;;;;;;;14.81;38.16;98746.91;5011567;28;20535;-84
2022/05/18 07:54:32;;;;;;;0.77;0.77;;;;;;;15.19;38.09;98752.66;4996531;28;20038;-84
2022/05/18 07:57:00;;;;;;;0.60;0.60;;;;;;;15.08;37.29;98740.25;5010024;28;20057;-83
2022/05/18 07:59:27;;;;;;;0.60;0.60;;;;;;;15.35;36.75;98762.38;5013215;28;20067;-84
2022/05/18 08:01:54;;;;;;;0.70;0.70;;;;;;;15.60;36.76;98768.75;5014863;28;20049;-83
2022/05/18 08:04:22;;;;;;;0.60;0.60;;;;;;;15.67;36.80;98752.09;4996498;28;20080;-85
2022/05/18 08:06:49;;;;;;;0.60;0.60;;;;;;;15.78;36.27;98749.03;5013041;28;20046;-83
2022/05/18 08:09:22;;;;;;;0.70;0.70;;;;;;;15.80;36.89;98746.03;5013237;28;20056;-83
2022/05/18 08:17:24;;;;;;;0.40;0.40;;;;;;;15.69;35.51;98791.53;5013960;28;20136;-83
2022/05/18 08:19:51;;;;;;;0.60;0.60;;;;;;;15.23;33.73;98752.94;5012690;28;20157;-85
2022/05/18 08:22:18;;;;;;;0.60;0.60;;;;;;;15.04;35.10;98788.09;5013839;28;20046;-84
2022/05/18 08:24:45;;;;;;;0.70;0.70;;;;;;;15.36;36.13;98766.69;5012468;28;20049;-84
2022/05/18 08:27:15;;;;;;;0.77;0.77;;;;;;;15.93;34.50;98774.50;5013418;28;20054;-84
2022/05/18 08:29:43;;;;;;;0.63;0.63;;;;;;;16.36;34.58;98774.66;4979256;28;20141;-83
2022/05/18 08:32:10;;;;;;;0.70;0.70;;;;;;;16.62;33.32;98767.00;5012233;28;20042;-84
2022/05/18 08:34:37;;;;;;;0.70;0.70;;;;;;;16.96;33.28;98775.06;5013071;28;20050;-84
2022/05/18 08:37:04;;;;;;;0.70;0.70;;;;;;;17.41;33.61;98755.66;5013415;28;20058;-83
2022/05/18 08:39:56;;;;;;;0.60;0.60;;;;;;;17.70;32.58;98764.47;5012940;28;20050;-83
2022/05/18 08:42:24;;;;;;;0.70;0.70;;;;;;;17.51;32.11;98771.88;5014119;28;20078;-84
2022/05/18 08:44:51;;;;;;;0.40;0.40;;;;;;;16.59;32.81;98783.94;4997070;28;20050;-83
2022/05/18 08:47:19;;;;;;;0.55;0.55;;;;;;;15.88;33.76;98782.72;4996338;28;20076;-83
2022/05/18 08:49:53;;;;;;;0.77;0.77;;;;;;;15.99;33.70;98786.97;5012079;28;20111;-84
2022/05/18 08:52:25;;;;;;;0.70;0.70;;;;;;;17.01;34.10;98790.53;5013406;28;20049;-83
2022/05/18 08:55:20;;;;;;;0.73;0.73;;;;;;;17.57;31.40;98787.03;5013383;28;20053;-82
2022/05/18 08:57:49;;;;;;;0.80;0.80;;;;;;;17.65;31.08;98785.59;5011652;28;20145;-81
2022/05/18 09:00:36;;;;;;;0.70;0.70;;;;;;;18.23;32.24;98778.91;5013138;28;20050;-84
2022/05/18 09:03:15;;;;;;;0.40;0.40;;;;;;;18.14;32.22;98785.06;5011854;28;20512;-83
2022/05/18 09:05:48;;;;;;;0.80;0.80;;;;;;;17.31;32.02;98767.50;5011653;28;20058;-82
2022/05/18 09:08:20;;;;;;;0.80;0.80;;;;;;;17.86;32.74;98761.53;5011265;28;20513;-81
2022/05/18 09:10:53;;;;;;;0.80;0.80;;;;;;;18.09;31.46;98766.03;5011700;28;20598;-83
2022/05/18 09:13:20;;;;;;;0.70;0.70;;;;;;;18.26;30.30;98761.94;5011381;28;20056;-83
2022/05/18 09:16:00;;;;;;;0.73;0.73;;;;;;;18.50;30.08;98776.22;5012841;28;20045;-82
2022/05/18 09:18:56;;;;;;;0.70;0.70;;;;;;;18.84;29.40;98786.00;5012381;28;20224;-83
2022/05/18 09:21:55;;;;;;;0.40;0.40;;;;;;;18.10;30.99;98751.28;5012128;28;20116;-80
2022/05/18 09:24:36;;;;;;;0.80;0.80;;;;;;;17.66;32.00;98785.28;5020368;28;20049;-83
2022/05/18 09:27:35;;;;;;;0.70;0.70;;;;;;;18.74;32.13;98775.25;5021239;28;20053;-83
2022/05/18 09:30:24;;;;;;;0.50;0.50;;;;;;;18.48;31.21;98758.50;5005865;28;20144;-83
2022/05/18 09:32:54;;;;;;;0.70;0.70;;;;;;;18.29;30.48;98783.19;5007157;28;20085;-83
2022/05/18 09:35:28;;;;;;;0.75;0.75;;;;;;;18.11;30.31;98777.47;5012101;28;20042;-85
2022/05/18 09:38:02;;;;;;;0.80;0.80;;;;;;;18.52;30.13;98776.75;5010558;28;20501;-85
2022/05/18 09:40:36;;;;;;;0.80;0.80;;;;;;;19.20;29.53;98780.59;5012881;28;20049;-82
2022/05/18 09:43:21;;;;;;;0.73;0.73;;;;;;;19.73;29.76;98783.84;5018670;28;20129;-83
2022/05/18 09:45:49;;;;;;;0.63;0.63;;;;;;;20.21;28.64;98800.44;5010983;28;20046;-82
2022/05/18 09:48:34;;;;;;;0.80;0.80;;;;;;;19.62;29.18;98758.56;4995253;28;20124;-82
2022/05/18 09:51:01;;;;;;;0.75;0.75;;;;;;;20.53;29.58;98784.78;5016235;28;20408;-81
2022/05/18 09:53:29;;;;;;;0.80;0.80;;;;;;;20.41;28.50;98760.72;5016406;28;20076;-81
2022/05/18 09:55:56;;;;;;;0.30;0.30;;;;;;;19.37;29.47;98782.69;5015534;28;20046;-80
2022/05/18 09:58:29;;;;;;;0.50;0.50;;;;;;;19.25;29.44;98779.69;5019593;28;20087;-82
2022/05/18 10:09:46;;;;;;;0.80;0.80;;;;;;;19.20;29.89;98788.00;4994831;28;20061;-86
2022/05/18 10:12:20;;;;;;;0.80;0.80;;;;;;;20.50;28.54;98785.44;4975655;28;20061;-83
2022/05/18 10:14:50;;;;;;;0.80;0.80;;;;;;;21.40;26.64;98783.16;5011260;28;20531;-83
2022/05/18 10:17:20;;;;;;;0.70;0.70;;;;;;;21.53;27.29;98775.09;5022762;28;20091;-82
2022/05/18 10:19:59;;;;;;;0.90;0.90;;;;;;;20.70;27.97;98790.38;5010594;28;20088;-82
2022/05/18 10:22:29;;;;;;;0.70;0.70;;;;;;;20.49;27.91;98773.66;5007592;28;20146;-82
2022/05/18 10:24:59;;;;;;;0.30;0.30;;;;;;;19.62;29.40;98791.41;5010797;28;20116;-82
2022/05/18 10:27:30;;;;;;;0.80;0.80;;;;;;;20.43;28.81;98779.59;5011502;28;20045;-83
2022/05/18 10:30:13;;;;;;;0.80;0.80;;;;;;;21.39;26.52;98770.56;5010042;28;20524;-82
2022/05/18 10:32:59;;;;;;;0.80;0.80;;;;;;;21.24;26.94;98781.97;5005302;28;20056;-82
2022/05/18 10:35:38;;;;;;;0.30;0.30;;;;;;;19.42;28.25;98779.84;4988951;28;20041;-82
2022/05/18 10:38:35;;;;;;;0.90;0.90;;;;;;;19.29;29.71;98750.56;5016293;28;20064;-83
2022/05/18 10:41:02;;;;;;;0.40;0.40;;;;;;;19.94;28.83;98778.66;4948706;28;20090;-83
2022/05/18 10:43:39;;;;;;;0.30;0.30;;;;;;;19.15;29.59;98775.22;4959048;28;20055;-82
2022/05/18 10:46:19;;;;;;;0.30;0.30;;;;;;;18.99;29.97;98766.56;4950861;29;20056;-82
2022/05/18 10:48:55;;;;;;;0.90;0.90;;;;;;;19.51;29.43;98765.41;4919148;28;20051;-83
2022/05/18 10:51:51;;;;;;;0.90;0.90;;;;;;;22.01;27.87;98776.84;4950700;29;20059;-83
2022/05/18 10:54:25;;;;;;;0.80;0.80;;;;;;;22.73;25.18;98765.00;4878428;29;20146;-84
2022/05/18 10:57:15;;;;;;;0.30;0.30;;;;;;;21.29;27.93;98775.53;4874729;29;20079;-85
2022/05/18 11:00:03;;;;;;;0.30;0.30;;;;;;;20.03;29.15;98790.50;4892374;29;20052;-82
2022/05/18 11:02:42;;;;;;;0.30;0.30;;;;;;;19.16;31.09;98800.66;4876519;29;20067;-82
2022/05/18 11:05:35;;;;;;;0.90;0.90;;;;;;;21.02;28.46;98793.88;4893518;29;20059;-83
2022/05/18 11:08:04;;;;;;;0.90;0.90;;;;;;;22.82;25.95;98783.44;4904844;29;20051;-82
2022/05/18 11:10:40;;;;;;;0.30;0.30;;;;;;;21.03;27.74;98784.50;4896859;29;20151;-83
2022/05/18 11:13:20;;;;;;;0.30;0.30;;;;;;;19.39;30.05;98779.63;4912292;29;20056;-83
2022/05/18 11:16:13;;;;;;;0.80;0.80;;;;;;;18.94;30.00;98779.50;4911842;29;20076;-83
2022/05/18 11:18:45;;;;;;;0.80;0.80;;;;;;;20.76;29.07;98780.06;4930229;29;20067;-84
2022/05/18 11:21:42;;;;;;;0.80;0.80;;;;;;;22.68;26.46;98797.38;4900119;29;20089;-82
2022/05/18 11:24:37;;;;;;;0.70;0.70;;;;;;;21.47;26.54;98793.69;4916075;29;20067;-83
2022/05/18 11:27:45;;;;;;;0.30;0.30;;;;;;;22.10;27.97;98790.56;4930678;29;20555;-83
2022/05/18 11:30:45;;;;;;;0.30;0.30;;;;;;;20.97;28.15;98777.56;4937607;28;20062;-81
2022/05/18 11:33:21;;;;;;;0.50;0.50;;;;;;;21.39;28.48;98799.94;5009586;28;20105;-84
2022/05/18 11:36:16;;;;;;;0.50;0.50;;;;;;;21.90;27.09;98803.03;5011208;28;20445;-83
2022/05/18 11:39:07;;;;;;;0.43;0.43;;;;;;;22.55;26.24;98792.91;5011511;28;20054;-82
2022/05/18 11:41:56;;;;;;;0.50;0.50;;;;;;;22.24;27.17;98777.47;5026382;28;20066;-83
2022/05/18 11:44:33;;;;;;;0.50;0.50;;;;;;;22.89;26.58;98790.03;5026299;28;20137;-81
2022/05/18 11:47:46;;;;;;;0.30;0.30;;;;;;;21.73;26.46;98790.94;5010647;28;20532;-83
2022/05/18 11:50:38;;;;;;;0.30;0.30;;;;;;;20.59;28.21;98800.03;5008851;28;20474;-83
2022/05/18 11:53:43;;;;;;;0.40;0.40;;;;;;;19.76;28.83;98800.44;4993360;28;20054;-81
2022/05/18 11:56:16;;;;;;;0.50;0.50;;;;;;;20.08;28.65;98798.59;5009545;28;20054;-82
2022/05/18 11:59:29;;;;;;;0.50;0.50;;;;;;;20.99;27.50;98803.56;5008791;28;20092;-83
2022/05/18 12:02:14;;;;;;;0.38;0.38;;;;;;;20.27;28.07;98799.16;4995741;28;20394;-82
2022/05/18 12:04:57;;;;;;;0.60;0.60;;;;;;;20.32;28.34;98784.53;5010466;28;20054;-82
2022/05/18 12:07:24;;;;;;;0.50;0.50;;;;;;;20.24;27.61;98788.84;5010691;28;20096;-83
2022/05/18 12:10:17;;;;;;;0.30;0.30;;;;;;;18.74;29.60;98778.78;5009142;28;20066;-83
2022/05/18 12:13:30;;;;;;;0.30;0.30;;;;;;;17.92;31.04;98766.59;5010483;28;20046;-83
2022/05/18 12:16:06;;;;;;;0.40;0.40;;;;;;;17.65;31.95;98791.03;4984088;28;20052;-83
2022/05/18 12:18:38;;;;;;;0.60;0.60;;;;;;;18.33;31.52;98790.50;5011806;28;20045;-83
2022/05/18 12:21:27;;;;;;;0.40;0.40;;;;;;;18.73;30.91;98773.59;5012706;28;20054;-82